createdAt,value
2018-10-18T00:00:23.737Z,101130.91
2018-10-18T00:02:51.372Z,101134.89
2018-10-18T00:05:18.815Z,101140.21
2018-10-18T00:07:46.337Z,101131.43
2018-10-18T00:10:14.147Z,101093.69
2018-10-18T00:12:41.646Z,101132.52
2018-10-18T00:15:09.617Z,101134.80
2018-10-18T00:17:42.692Z,101129.69
2018-10-18T00:20:10.546Z,101136.48
2018-10-18T00:22:38.396Z,101138.33
2018-10-18T00:25:06.048Z,101130.88
2018-10-18T00:27:34.009Z,101126.44
2018-10-18T00:30:01.691Z,101126.97
2018-10-18T00:32:29.097Z,101125.46
2018-10-18T00:34:56.961Z,101126.55
2018-10-18T00:37:24.516Z,101133.86
2018-10-18T00:39:51.924Z,101126.55
2018-10-18T00:42:19.612Z,101146.16
2018-10-18T00:44:47.484Z,101150.81
2018-10-18T00:47:14.955Z,101146.09
2018-10-18T00:49:42.908Z,101154.62
2018-10-18T00:52:10.731Z,101155.14
2018-10-18T00:54:38.168Z,101159.58
2018-10-18T00:57:05.773Z,101168.04
2018-10-18T00:59:33.412Z,101167.55
2018-10-18T01:02:00.866Z,101164.51
2018-10-18T01:04:28.661Z,101164.51
2018-10-18T01:06:56.998Z,101159.72
2018-10-18T01:09:24.443Z,101159.72
2018-10-18T01:11:52.036Z,101156.22
2018-10-18T01:14:19.728Z,101162.44
2018-10-18T01:16:51.478Z,101160.72
2018-10-18T01:19:19.116Z,101164.77
2018-10-18T01:21:46.835Z,101158.20
2018-10-18T01:24:14.348Z,101162.64
2018-10-18T01:26:42.156Z,101157.91
2018-10-18T01:29:09.946Z,101156.72
2018-10-18T01:31:37.407Z,101153.74
2018-10-18T01:34:05.184Z,101160.97
2018-10-18T01:36:32.966Z,101161.98
2018-10-18T01:39:00.478Z,101157.25
2018-10-18T01:41:28.497Z,101155.98
2018-10-18T01:43:56.592Z,101168.42
2018-10-18T01:46:24.086Z,101175.59
2018-10-18T01:48:52.051Z,101191.66
2018-10-18T01:51:19.782Z,101195.83
2018-10-18T01:53:47.210Z,101193.23
2018-10-18T01:56:15.056Z,101193.69
2018-10-18T01:58:42.617Z,101187.05
2018-10-18T02:01:10.115Z,101179.15
2018-10-18T02:03:37.656Z,101183.20
2018-10-18T02:06:05.878Z,101181.48
2018-10-18T02:08:33.342Z,101180.67
2018-10-18T02:11:01.104Z,101183.39
2018-10-18T02:13:28.823Z,101184.78
2018-10-18T02:15:56.307Z,101181.67
2018-10-18T02:18:23.929Z,101179.47
2018-10-18T02:20:51.694Z,101172.89
2018-10-18T02:23:19.219Z,101175.19
2018-10-18T02:25:46.926Z,101174.38
2018-10-18T02:28:14.574Z,101166.09
2018-10-18T02:30:42.105Z,101167.55
2018-10-18T02:33:09.824Z,101165.47
2018-10-18T02:35:37.496Z,101164.27
2018-10-18T02:38:05.099Z,101160.80
2018-10-18T02:40:32.762Z,101166.59
2018-10-18T02:43:00.469Z,101160.41
2018-10-18T02:45:27.934Z,101163.07
2018-10-18T02:47:55.673Z,101172.81
2018-10-18T02:50:23.373Z,101171.03
2018-10-18T02:52:50.887Z,101175.47
2018-10-18T02:55:18.563Z,101174.62
2018-10-18T02:57:46.446Z,101177.80
2018-10-18T03:00:13.947Z,101169.53
2018-10-18T03:02:41.534Z,101161.12
2018-10-18T03:05:09.238Z,101163.32
2018-10-18T03:07:36.649Z,101158.79
2018-10-18T03:10:05.720Z,101153.84
2018-10-18T03:12:33.370Z,101152.97
2018-10-18T03:15:00.783Z,101154.72
2018-10-18T03:17:28.527Z,101157.44
2018-10-18T03:19:56.128Z,101161.41
2018-10-18T03:22:23.544Z,101157.02
2018-10-18T03:24:51.158Z,101167.62
2018-10-18T03:27:18.812Z,101165.42
2018-10-18T03:29:46.237Z,101160.54
2018-10-18T03:32:13.846Z,101166.30
2018-10-18T03:34:41.712Z,101172.48
2018-10-18T03:37:09.158Z,101176.41
2018-10-18T03:39:36.849Z,101178.12
2018-10-18T03:42:04.733Z,101174.56
2018-10-18T03:44:32.138Z,101178.55
2018-10-18T03:46:59.811Z,101177.61
2018-10-18T03:49:27.544Z,101176.22
2018-10-18T03:51:55.033Z,101176.16
2018-10-18T03:54:22.584Z,101179.26
2018-10-18T03:56:50.393Z,101177.87
2018-10-18T03:59:17.904Z,101169.84
2018-10-18T04:01:45.609Z,101171.59
2018-10-18T04:04:13.360Z,101171.98
2018-10-18T04:06:40.880Z,101171.98
2018-10-18T04:09:09.375Z,101168.00
2018-10-18T04:15:08.057Z,101173.63
2018-10-18T04:17:35.669Z,101174.51
2018-10-18T04:20:03.530Z,101172.80
2018-10-18T04:22:31.424Z,101170.14
2018-10-18T04:24:58.878Z,101163.02
2018-10-18T04:27:26.591Z,101163.83
2018-10-18T04:29:54.322Z,101157.64
2018-10-18T04:32:21.855Z,101159.91
2018-10-18T04:34:49.835Z,101156.86
2018-10-18T04:37:17.403Z,101162.17
2018-10-18T04:39:44.865Z,101163.44
2018-10-18T04:42:12.595Z,101163.50
2018-10-18T04:44:40.283Z,101159.52
2018-10-18T04:47:07.744Z,101166.22
2018-10-18T04:49:35.446Z,101167.12
2018-10-18T04:52:03.149Z,101120.22
2018-10-18T04:54:30.643Z,101168.45
2018-10-18T04:56:58.361Z,101168.94
2018-10-18T04:59:26.281Z,101163.63
2018-10-18T05:01:53.683Z,101163.63
2018-10-18T05:04:21.393Z,101162.69
2018-10-18T05:06:49.087Z,101162.30
2018-10-18T05:09:16.549Z,101180.01
2018-10-18T05:11:44.479Z,101157.05
2018-10-18T05:14:12.234Z,101147.83
2018-10-18T05:16:39.683Z,101154.98
2018-10-18T05:19:07.582Z,101149.73
2018-10-18T05:21:35.218Z,101145.36
2018-10-18T05:24:02.995Z,101102.41
2018-10-18T05:26:30.690Z,101150.61
2018-10-18T05:28:58.247Z,101149.28
2018-10-18T05:31:25.736Z,101150.93
2018-10-18T05:33:53.416Z,101160.67
2018-10-18T05:36:21.049Z,101169.91
2018-10-18T05:38:48.499Z,101174.83
2018-10-18T05:41:16.131Z,101182.34
2018-10-18T05:43:43.830Z,101184.57
2018-10-18T05:46:11.280Z,101192.53
2018-10-18T05:48:39.014Z,101182.40
2018-10-18T05:51:06.729Z,101185.05
2018-10-18T05:53:34.281Z,101188.10
2018-10-18T05:56:01.805Z,101191.56
2018-10-18T05:58:29.501Z,101187.59
2018-10-18T06:00:57.107Z,101194.09
2018-10-18T06:03:24.775Z,101191.89
2018-10-18T06:05:52.355Z,101187.91
2018-10-18T06:08:19.860Z,101182.60
2018-10-18T06:10:59.028Z,101182.15
2018-10-18T06:13:26.545Z,101184.25
2018-10-18T06:15:53.986Z,101187.78
2018-10-18T06:18:21.893Z,101177.42
2018-10-18T06:20:49.352Z,101179.20
2018-10-18T06:23:16.861Z,101198.86
2018-10-18T06:25:45.136Z,101204.59
2018-10-18T06:28:12.615Z,101206.30
2018-10-18T06:30:40.145Z,101206.70
2018-10-18T06:33:08.032Z,101203.98
2018-10-18T06:35:35.574Z,101207.48
2018-10-18T06:38:03.101Z,101207.88
2018-10-18T06:40:30.985Z,101210.01
2018-10-18T06:42:58.706Z,101210.89
2018-10-18T06:45:26.133Z,101220.12
2018-10-18T06:47:54.153Z,101219.63
2018-10-18T06:50:21.564Z,101216.13
2018-10-18T06:52:49.060Z,101219.56
2018-10-18T06:55:17.201Z,101218.72
2018-10-18T06:57:44.935Z,101220.89
2018-10-18T07:00:19.152Z,101216.97
2018-10-18T07:02:46.827Z,101216.13
2018-10-18T07:05:14.934Z,101219.11
2018-10-18T07:07:43.057Z,101208.04
2018-10-18T07:10:10.714Z,101211.53
2018-10-18T07:12:38.722Z,101220.31
2018-10-18T07:15:07.249Z,101219.86
2018-10-18T07:17:35.023Z,101227.31
2018-10-18T07:20:02.536Z,101221.45
2018-10-18T07:22:30.374Z,101224.05
2018-10-18T07:24:58.035Z,101227.13
2018-10-18T07:27:25.521Z,101231.89
2018-10-18T07:29:53.078Z,101235.81
2018-10-18T07:32:20.842Z,101240.73
2018-10-18T07:34:48.327Z,101238.95
2018-10-18T07:37:15.979Z,101234.03
2018-10-18T07:39:43.690Z,101235.81
2018-10-18T07:42:11.244Z,101238.01
2018-10-18T07:44:38.797Z,101234.91
2018-10-18T07:47:07.548Z,101237.07
2018-10-18T07:49:35.035Z,101244.07
2018-10-18T07:52:02.754Z,101228.52
2018-10-18T07:54:30.489Z,101232.12
2018-10-18T07:56:57.969Z,101234.71
2018-10-18T07:59:25.985Z,101235.97
2018-10-18T08:01:53.720Z,101234.16
2018-10-18T08:04:21.207Z,101241.09
2018-10-18T08:06:48.838Z,101241.48
2018-10-18T08:09:16.503Z,101243.56
2018-10-18T08:11:43.970Z,101235.52
2018-10-18T08:14:11.775Z,101247.74
2018-10-18T08:16:39.842Z,101245.50
2018-10-18T08:19:07.528Z,101185.40
2018-10-18T08:21:35.512Z,101239.99
2018-10-18T08:24:03.385Z,101239.86
2018-10-18T08:26:30.826Z,101249.55
2018-10-18T08:28:58.593Z,101250.36
2018-10-18T08:31:26.281Z,101253.86
2018-10-18T08:33:53.716Z,101259.53
2018-10-18T08:36:21.473Z,101252.95
2018-10-18T08:38:49.134Z,101253.67
2018-10-18T08:41:16.703Z,101252.77
2018-10-18T08:43:44.428Z,101253.08
2018-10-18T08:46:12.093Z,101258.33
2018-10-18T08:48:39.527Z,101258.66
2018-10-18T08:51:07.153Z,101254.59
2018-10-18T08:53:34.725Z,101264.27
2018-10-18T08:56:02.235Z,101257.55
2018-10-18T08:58:29.963Z,101259.20
2018-10-18T09:00:57.810Z,101251.64
2018-10-18T09:03:25.298Z,101256.41
2018-10-18T09:05:53.000Z,101254.94
2018-10-18T09:08:20.734Z,101252.22
2018-10-18T09:10:48.212Z,101253.97
2018-10-18T09:13:15.982Z,101248.97
2018-10-18T09:15:43.673Z,101257.27
2018-10-18T09:18:11.160Z,101249.16
2018-10-18T09:20:38.787Z,101259.66
2018-10-18T09:23:06.697Z,101247.09
2018-10-18T09:25:34.167Z,101249.94
2018-10-18T09:28:02.240Z,101255.02
2018-10-18T09:30:29.957Z,101252.85
2018-10-18T09:32:57.365Z,101259.97
2018-10-18T09:35:24.981Z,101250.30
2018-10-18T09:37:52.680Z,101260.45
2018-10-18T09:40:20.188Z,101250.78
2018-10-18T09:42:48.207Z,101252.70
2018-10-18T09:45:15.937Z,101253.67
2018-10-18T09:47:43.376Z,101252.39
2018-10-18T09:50:11.918Z,101251.61
2018-10-18T09:52:39.692Z,101238.98
2018-10-18T09:55:08.645Z,101240.96
2018-10-18T09:57:36.369Z,101232.82
2018-10-18T10:00:04.391Z,101235.72
2018-10-18T10:03:40.301Z,101239.03
2018-10-18T10:06:07.983Z,101233.55
2018-10-18T10:08:35.430Z,101233.02
2018-10-18T10:11:02.980Z,101238.13
2018-10-18T10:13:30.805Z,101233.09
2018-10-18T10:15:58.332Z,101226.66
2018-10-18T10:18:26.078Z,101225.11
2018-10-18T10:20:53.810Z,101221.45
2018-10-18T10:23:21.264Z,101221.67
2018-10-18T10:25:48.829Z,101215.73
2018-10-18T10:28:16.576Z,101211.95
2018-10-18T10:30:44.034Z,101217.55
2018-10-18T10:33:11.746Z,101206.64
2018-10-18T10:35:39.940Z,101206.72
2018-10-18T10:38:07.336Z,101201.06
2018-10-18T10:40:35.003Z,101196.28
2018-10-18T10:43:02.726Z,101197.13
2018-10-18T10:45:30.116Z,101194.77
2018-10-18T10:47:58.047Z,101200.55
2018-10-18T10:50:25.812Z,101202.26
2018-10-18T10:52:53.288Z,101201.30
2018-10-18T10:55:21.037Z,101191.45
2018-10-18T10:57:48.617Z,101188.28
2018-10-18T11:00:26.151Z,101189.55
2018-10-18T11:02:53.797Z,101185.33
2018-10-18T11:05:21.271Z,101191.03
2018-10-18T11:07:48.981Z,101191.38
2018-10-18T11:10:16.602Z,101183.39
2018-10-18T11:12:44.090Z,101178.95
2018-10-18T11:15:12.896Z,101177.81
2018-10-18T11:17:40.490Z,101184.08
2018-10-18T11:20:07.988Z,101188.20
2018-10-18T11:22:35.671Z,101186.97
2018-10-18T11:25:03.743Z,101179.64
2018-10-18T11:27:31.213Z,101181.59
2018-10-18T11:29:58.998Z,101175.19
2018-10-18T11:32:26.713Z,101187.81
2018-10-18T11:34:54.139Z,101185.75
2018-10-18T11:37:53.037Z,101180.31
2018-10-18T11:40:20.536Z,101172.19
2018-10-18T11:42:48.037Z,101116.63
2018-10-18T11:45:16.052Z,101177.17
2018-10-18T11:47:43.487Z,101178.61
2018-10-18T11:50:11.020Z,101173.26
2018-10-18T11:52:38.911Z,101186.53
2018-10-18T11:55:06.440Z,101184.61
2018-10-18T11:57:33.867Z,101183.77
2018-10-18T12:00:01.824Z,101181.00
2018-10-18T12:02:29.344Z,101178.33
2018-10-18T12:04:56.828Z,101184.42
2018-10-18T12:07:24.577Z,101185.48
2018-10-18T12:09:52.067Z,101192.64
2018-10-18T12:12:19.591Z,101177.45
2018-10-18T12:14:47.575Z,101182.02
2018-10-18T12:17:15.151Z,101170.58
2018-10-18T12:19:42.589Z,101179.16
2018-10-18T12:22:10.344Z,101184.23
2018-10-18T12:24:37.881Z,101183.36
2018-10-18T12:27:05.781Z,101177.62
2018-10-18T12:29:33.679Z,101172.47
2018-10-18T12:32:01.114Z,101171.59
2018-10-18T12:34:28.780Z,101174.73
2018-10-18T12:36:57.140Z,101175.70
2018-10-18T12:39:24.579Z,101172.15
2018-10-18T12:41:52.077Z,101171.78
2018-10-18T12:44:20.018Z,101179.48
2018-10-18T12:46:47.449Z,101175.56
2018-10-18T12:49:14.865Z,101178.55
2018-10-18T12:51:42.756Z,101182.94
2018-10-18T12:54:10.290Z,101185.23
2018-10-18T12:56:37.703Z,101183.12
2018-10-18T12:59:05.757Z,101179.98
2018-10-18T13:01:33.210Z,101186.57
2018-10-18T13:04:00.703Z,101191.42
2018-10-18T13:06:28.480Z,101199.76
2018-10-18T13:08:55.922Z,101199.53
2018-10-18T13:11:23.431Z,101209.56
2018-10-18T13:13:51.445Z,101189.52
2018-10-18T13:16:18.917Z,101186.75
2018-10-18T13:18:46.519Z,101174.63
2018-10-18T13:21:14.233Z,101181.78
2018-10-18T13:23:41.721Z,101189.89
2018-10-18T13:26:09.312Z,101192.66
2018-10-18T13:28:37.297Z,101179.93
2018-10-18T13:31:05.006Z,101192.64
2018-10-18T13:33:32.424Z,101188.72
2018-10-18T13:36:00.353Z,101188.72
2018-10-18T13:38:27.842Z,101200.42
2018-10-18T13:40:55.437Z,101198.80
2018-10-18T13:43:23.133Z,101209.67
2018-10-18T13:45:50.588Z,101207.95
2018-10-18T13:48:18.178Z,101216.91
2018-10-18T13:50:46.061Z,101218.83
2018-10-18T13:53:13.487Z,101212.23
2018-10-18T13:55:40.903Z,101212.78
2018-10-18T13:58:08.641Z,101210.75
2018-10-18T14:00:36.120Z,101216.19
2018-10-18T14:03:03.753Z,101211.02
2018-10-18T14:05:31.743Z,101212.52
2018-10-18T14:07:59.271Z,101208.61
2018-10-18T14:10:26.694Z,101204.30
2018-10-18T14:12:54.641Z,101204.56
2018-10-18T14:15:22.181Z,101206.74
2018-10-18T14:17:49.699Z,101197.48
2018-10-18T14:20:17.515Z,101199.48
2018-10-18T14:22:44.938Z,101203.66
2018-10-18T14:25:12.485Z,101202.64
2018-10-18T14:27:40.388Z,101209.57
2018-10-18T14:30:09.331Z,101208.50
2018-10-18T14:32:37.007Z,101204.98
2018-10-18T14:35:07.167Z,101209.16
2018-10-18T14:37:34.654Z,101207.03
2018-10-18T14:40:02.154Z,101207.58
2018-10-18T14:42:29.902Z,101206.74
2018-10-18T14:44:57.408Z,101212.08
2018-10-18T14:47:25.035Z,101199.28
2018-10-18T14:49:52.889Z,101205.08
2018-10-18T14:52:20.488Z,101199.87
2018-10-18T14:54:47.981Z,101202.80
2018-10-18T14:57:16.245Z,101205.72
2018-10-18T14:59:43.837Z,101201.09
2018-10-18T15:02:11.661Z,101210.69
2018-10-18T15:04:39.683Z,101206.94
2018-10-18T15:07:07.700Z,101205.77
2018-10-18T15:09:35.342Z,101215.11
2018-10-18T15:12:03.036Z,101213.94
2018-10-18T15:14:30.529Z,101204.38
2018-10-18T15:16:58.059Z,101209.88
2018-10-18T15:19:26.305Z,101206.97
2018-10-18T15:21:53.807Z,101200.88
2018-10-18T15:24:21.315Z,101200.63
2018-10-18T15:26:49.260Z,101202.13
2018-10-18T15:29:16.768Z,101210.06
2018-10-18T15:31:44.255Z,101204.18
2018-10-18T15:34:12.074Z,101207.17
2018-10-18T15:36:39.564Z,101208.11
2018-10-18T15:39:08.512Z,101204.13
2018-10-18T15:41:36.732Z,101210.56
2018-10-18T15:44:04.395Z,101203.56
2018-10-18T15:46:31.870Z,101205.05
2018-10-18T15:48:59.773Z,101217.13
2018-10-18T15:51:27.254Z,101209.29
2018-10-18T15:53:54.931Z,101215.11
2018-10-18T15:56:22.882Z,101212.53
2018-10-18T15:58:50.346Z,101217.36
2018-10-18T16:01:17.818Z,101216.98
2018-10-18T16:03:45.497Z,101212.19
2018-10-18T16:06:13.010Z,101226.92
2018-10-18T16:08:40.583Z,101223.95
2018-10-18T16:11:08.662Z,101220.64
2018-10-18T16:13:37.056Z,101223.09
2018-10-18T16:16:04.946Z,101226.05
2018-10-18T16:18:32.751Z,101220.08
2018-10-18T16:21:00.325Z,101224.69
2018-10-18T16:23:27.846Z,101222.63
2018-10-18T16:25:55.539Z,101228.03
2018-10-18T16:28:23.057Z,101226.31
2018-10-18T16:30:50.487Z,101230.01
2018-10-18T16:33:18.407Z,101234.99
2018-10-18T16:35:45.958Z,101232.41
2018-10-18T16:38:13.466Z,101235.94
2018-10-18T16:40:41.198Z,101239.94
2018-10-18T16:43:08.722Z,101242.67
2018-10-18T16:45:36.216Z,101248.53
2018-10-18T16:48:03.889Z,101250.81
2018-10-18T16:50:31.382Z,101248.68
2018-10-18T16:52:58.846Z,101254.58
2018-10-18T16:55:26.553Z,101246.66
2018-10-18T16:57:54.072Z,101242.21
2018-10-18T17:00:21.671Z,101245.75
2018-10-18T17:02:49.349Z,101242.36
2018-10-18T17:05:16.922Z,101246.50
2018-10-18T17:07:44.391Z,101247.45
2018-10-18T17:10:12.318Z,101242.12
2018-10-18T17:12:39.807Z,101250.98
2018-10-18T17:15:07.490Z,101249.16
2018-10-18T17:17:35.434Z,101247.06
2018-10-18T17:20:02.992Z,101247.52
2018-10-18T17:22:31.430Z,101247.20
2018-10-18T17:24:59.160Z,101249.00
2018-10-18T17:27:26.745Z,101257.06
2018-10-18T17:29:54.203Z,101257.20
2018-10-18T17:32:21.994Z,101256.64
2018-10-18T17:34:49.377Z,101259.80
2018-10-18T17:37:16.915Z,101255.88
2018-10-18T17:39:44.690Z,101259.52
2018-10-18T17:42:12.242Z,101255.81
2018-10-18T17:44:39.749Z,101258.16
2018-10-18T17:47:07.668Z,101259.56
2018-10-18T17:49:35.099Z,101260.16
2018-10-18T17:52:02.605Z,101250.08
2018-10-18T17:54:30.373Z,101250.67
2018-10-18T17:56:57.858Z,101258.00
2018-10-18T17:59:25.351Z,101262.13
2018-10-18T18:01:53.110Z,101264.06
2018-10-18T18:04:20.553Z,101271.34
2018-10-18T18:06:48.043Z,101276.67
2018-10-18T18:09:16.007Z,101278.00
2018-10-18T18:11:43.408Z,101272.74
2018-10-18T18:14:10.898Z,101272.74
2018-10-18T18:16:38.699Z,101270.61
2018-10-18T18:19:06.154Z,101271.55
2018-10-18T18:21:33.613Z,101270.29
2018-10-18T18:24:01.514Z,101273.02
2018-10-18T18:26:32.716Z,101271.69
2018-10-18T18:28:56.506Z,101277.01
2018-10-18T18:31:24.492Z,101285.00
2018-10-18T18:33:51.991Z,101291.72
2018-10-18T18:36:19.453Z,101294.83
2018-10-18T18:38:47.404Z,101297.03
2018-10-18T18:41:14.878Z,101298.89
2018-10-18T18:43:42.327Z,101300.88
2018-10-18T18:46:10.084Z,101308.61
2018-10-18T18:48:37.567Z,101310.00
2018-10-18T18:51:05.227Z,101257.80
2018-10-18T18:53:33.093Z,101315.53
2018-10-18T18:56:00.590Z,101313.07
2018-10-18T18:58:28.006Z,101309.67
2018-10-18T19:00:55.753Z,101310.67
2018-10-18T19:03:23.199Z,101310.39
2018-10-18T19:05:50.725Z,101298.62
2018-10-18T19:08:18.343Z,101299.69
2018-10-18T19:10:45.844Z,101304.13
2018-10-18T19:13:13.355Z,101308.31
2018-10-18T19:15:41.364Z,101319.96
2018-10-18T19:18:08.856Z,101324.20
2018-10-18T19:20:37.223Z,101327.38
2018-10-18T19:23:05.300Z,101321.87
2018-10-18T19:25:32.777Z,101338.01
2018-10-18T19:28:00.233Z,101338.13
2018-10-18T19:30:28.029Z,101336.45
2018-10-18T19:32:55.558Z,101343.58
2018-10-18T19:35:23.063Z,101344.48
2018-10-18T19:37:50.794Z,101332.64
2018-10-18T19:40:18.267Z,101333.65
2018-10-18T19:42:45.721Z,101337.27
2018-10-18T19:45:13.596Z,101335.74
2018-10-18T19:47:41.131Z,101337.65
2018-10-18T19:50:11.641Z,101348.34
2018-10-18T19:52:39.478Z,101346.23
2018-10-18T19:55:07.189Z,101344.08
2018-10-18T19:57:34.641Z,101347.31
2018-10-18T20:00:02.492Z,101346.98
2018-10-18T20:02:29.991Z,101352.69
2018-10-18T20:04:57.478Z,101347.38
2018-10-18T20:07:25.231Z,101345.27
2018-10-18T20:09:52.676Z,101346.72
2018-10-18T20:12:20.101Z,101356.02
2018-10-18T20:14:47.728Z,101351.60
2018-10-18T20:17:15.163Z,101352.15
2018-10-18T20:19:42.695Z,101343.88
2018-10-18T20:22:12.182Z,101350.97
2018-10-18T20:24:39.638Z,101349.82
2018-10-18T20:27:07.593Z,101350.88
2018-10-18T20:29:35.659Z,101358.41
2018-10-18T20:32:03.134Z,101354.49
2018-10-18T20:34:30.605Z,101352.68
2018-10-18T20:36:58.469Z,101350.88
2018-10-18T20:39:25.980Z,101341.73
2018-10-18T20:41:53.467Z,101351.95
2018-10-18T20:44:21.133Z,101363.54
2018-10-18T20:46:48.629Z,101357.44
2018-10-18T20:49:16.131Z,101361.42
2018-10-18T20:51:43.918Z,101369.84
2018-10-18T20:54:11.471Z,101365.86
2018-10-18T20:56:38.929Z,101361.55
2018-10-18T20:59:06.652Z,101363.83
2018-10-18T21:01:34.114Z,101366.48
2018-10-18T21:04:01.667Z,101361.72
2018-10-18T21:06:29.408Z,101367.98
2018-10-18T21:08:56.951Z,101361.91
2018-10-18T21:11:24.401Z,101360.70
2018-10-18T21:13:52.174Z,101360.42
2018-10-18T21:16:19.668Z,101359.22
2018-10-18T21:18:47.103Z,101362.75
2018-10-18T21:21:14.921Z,101364.91
2018-10-18T21:23:42.331Z,101373.30
2018-10-18T21:26:09.918Z,101365.28
2018-10-18T21:28:37.673Z,101368.39
2018-10-18T21:31:05.459Z,101370.65
2018-10-18T21:33:33.005Z,101378.61
2018-10-18T21:36:00.767Z,101387.53
2018-10-18T21:38:28.297Z,101384.94
2018-10-18T21:40:55.848Z,101328.19
2018-10-18T21:43:23.635Z,101378.36
2018-10-18T21:45:55.549Z,101377.56
2018-10-18T21:48:23.346Z,101377.20
2018-10-18T21:50:51.162Z,101377.68
2018-10-18T21:53:18.631Z,101381.34
2018-10-18T21:55:46.115Z,101391.57
2018-10-18T21:58:13.985Z,101404.50
2018-10-18T22:00:44.927Z,101407.66
2018-10-18T22:03:12.597Z,101405.88
2018-10-18T22:05:40.484Z,101406.67
2018-10-18T22:08:07.956Z,101402.63
2018-10-18T22:10:35.420Z,101400.03
2018-10-18T22:13:03.406Z,101390.91
2018-10-18T22:15:30.904Z,101389.36
2018-10-18T22:17:58.404Z,101391.24
2018-10-18T22:20:26.224Z,101398.38
2018-10-18T22:22:53.785Z,101404.27
2018-10-18T22:25:21.268Z,101407.77
2018-10-18T22:27:49.062Z,101408.25
2018-10-18T22:30:16.544Z,101408.70
2018-10-18T22:32:44.156Z,101401.35
2018-10-18T22:35:12.049Z,101402.89
2018-10-18T22:37:39.490Z,101403.88
2018-10-18T22:40:07.271Z,101404.44
2018-10-18T22:42:35.082Z,101411.11
2018-10-18T22:45:03.573Z,101414.70
2018-10-18T22:47:31.054Z,101419.17
2018-10-18T22:49:58.844Z,101421.48
2018-10-18T22:52:26.304Z,101420.27
2018-10-18T22:54:53.747Z,101423.41
2018-10-18T22:57:21.505Z,101420.81
2018-10-18T22:59:48.980Z,101425.72
2018-10-18T23:02:16.465Z,101417.33
2018-10-18T23:04:44.326Z,101418.27
2018-10-18T23:07:11.845Z,101414.78
2018-10-18T23:09:39.239Z,101421.52
2018-10-18T23:12:07.138Z,101419.02
2018-10-18T23:14:34.648Z,101427.50
2018-10-18T23:17:02.237Z,101431.42
2018-10-18T23:19:29.999Z,101431.83
2018-10-18T23:21:57.443Z,101433.55
2018-10-18T23:24:24.849Z,101437.95
2018-10-18T23:26:52.731Z,101437.52
2018-10-18T23:29:20.191Z,101430.10
2018-10-18T23:31:47.610Z,101426.67
2018-10-18T23:34:15.372Z,101428.50
2018-10-18T23:36:42.841Z,101425.02
2018-10-18T23:39:10.839Z,101431.40
2018-10-18T23:41:38.914Z,101431.59
2018-10-18T23:44:06.392Z,101439.59
2018-10-18T23:46:33.809Z,101437.49
2018-10-18T23:49:01.687Z,101439.70
2018-10-18T23:51:29.128Z,101441.90
2018-10-18T23:53:56.572Z,101444.50
2018-10-18T23:56:27.276Z,101442.25
2018-10-18T23:58:54.884Z,101453.73
